sensor_id;sensor_type;location;lat;lon;timestamp;P1;durP1;ratioP1;P2;durP2;ratioP2
71166;SDS011;58864;45.928;20.078;2022-10-22T00:02:03;14.27;;;5.10;;
71166;SDS011;58864;45.928;20.078;2022-10-22T00:04:33;12.57;;;5.03;;
71166;SDS011;58864;45.928;20.078;2022-10-22T00:06:59;16.30;;;5.35;;
71166;SDS011;58864;45.928;20.078;2022-10-22T00:09:24;18.33;;;5.43;;
71166;SDS011;58864;45.928;20.078;2022-10-22T00:11:51;12.53;;;5.50;;
71166;SDS011;58864;45.928;20.078;2022-10-22T00:14:18;12.75;;;4.93;;
71166;SDS011;58864;45.928;20.078;2022-10-22T00:16:47;12.68;;;5.18;;
71166;SDS011;58864;45.928;20.078;2022-10-22T00:19:16;13.70;;;5.07;;
71166;SDS011;58864;45.928;20.078;2022-10-22T00:21:43;10.73;;;4.55;;
71166;SDS011;58864;45.928;20.078;2022-10-22T00:24:08;12.67;;;5.43;;
71166;SDS011;58864;45.928;20.078;2022-10-22T00:26:38;9.93;;;4.63;;
71166;SDS011;58864;45.928;20.078;2022-10-22T00:29:05;10.48;;;4.45;;
71166;SDS011;58864;45.928;20.078;2022-10-22T00:31:30;17.30;;;5.00;;
71166;SDS011;58864;45.928;20.078;2022-10-22T00:33:57;12.07;;;4.80;;
71166;SDS011;58864;45.928;20.078;2022-10-22T00:36:22;10.20;;;4.40;;
71166;SDS011;58864;45.928;20.078;2022-10-22T00:38:50;14.52;;;5.50;;
71166;SDS011;58864;45.928;20.078;2022-10-22T00:41:19;17.30;;;5.65;;
71166;SDS011;58864;45.928;20.078;2022-10-22T00:44:03;12.52;;;5.30;;
71166;SDS011;58864;45.928;20.078;2022-10-22T00:46:30;12.68;;;4.72;;
71166;SDS011;58864;45.928;20.078;2022-10-22T00:48:58;11.90;;;4.83;;
71166;SDS011;58864;45.928;20.078;2022-10-22T00:51:28;11.15;;;4.60;;
71166;SDS011;58864;45.928;20.078;2022-10-22T00:53:55;12.82;;;4.88;;
71166;SDS011;58864;45.928;20.078;2022-10-22T00:56:26;19.73;;;4.80;;
71166;SDS011;58864;45.928;20.078;2022-10-22T00:58:57;13.23;;;4.90;;
71166;SDS011;58864;45.928;20.078;2022-10-22T01:01:24;10.50;;;4.70;;
71166;SDS011;58864;45.928;20.078;2022-10-22T01:03:53;12.10;;;4.65;;
71166;SDS011;58864;45.928;20.078;2022-10-22T01:06:24;9.25;;;3.95;;
71166;SDS011;58864;45.928;20.078;2022-10-22T01:17:18;12.45;;;3.83;;
71166;SDS011;58864;45.928;20.078;2022-10-22T01:25:26;13.30;;;4.90;;
71166;SDS011;58864;45.928;20.078;2022-10-22T01:30:41;13.70;;;4.20;;
71166;SDS011;58864;45.928;20.078;2022-10-22T01:33:08;9.38;;;4.15;;
71166;SDS011;58864;45.928;20.078;2022-10-22T01:35:41;14.05;;;4.70;;
71166;SDS011;58864;45.928;20.078;2022-10-22T01:38:12;11.63;;;3.97;;
71166;SDS011;58864;45.928;20.078;2022-10-22T01:40:42;10.73;;;4.18;;
71166;SDS011;58864;45.928;20.078;2022-10-22T01:43:07;9.87;;;3.53;;
71166;SDS011;58864;45.928;20.078;2022-10-22T01:54:02;9.80;;;4.20;;
71166;SDS011;58864;45.928;20.078;2022-10-22T01:59:43;11.23;;;3.88;;
71166;SDS011;58864;45.928;20.078;2022-10-22T02:02:23;13.52;;;4.72;;
71166;SDS011;58864;45.928;20.078;2022-10-22T02:05:24;10.82;;;3.95;;
71166;SDS011;58864;45.928;20.078;2022-10-22T02:07:56;13.65;;;4.53;;
71166;SDS011;58864;45.928;20.078;2022-10-22T02:10:30;10.33;;;3.77;;
71166;SDS011;58864;45.928;20.078;2022-10-22T02:12:58;8.82;;;3.72;;
71166;SDS011;58864;45.928;20.078;2022-10-22T02:15:29;12.38;;;4.45;;
71166;SDS011;58864;45.928;20.078;2022-10-22T02:17:59;10.35;;;4.10;;
71166;SDS011;58864;45.928;20.078;2022-10-22T02:20:34;10.75;;;3.95;;
71166;SDS011;58864;45.928;20.078;2022-10-22T02:23:02;11.27;;;3.90;;
71166;SDS011;58864;45.928;20.078;2022-10-22T02:25:31;12.30;;;3.78;;
71166;SDS011;58864;45.928;20.078;2022-10-22T02:28:12;11.80;;;4.32;;
71166;SDS011;58864;45.928;20.078;2022-10-22T02:30:46;11.73;;;4.28;;
71166;SDS011;58864;45.928;20.078;2022-10-22T02:33:18;12.77;;;3.92;;
71166;SDS011;58864;45.928;20.078;2022-10-22T02:35:48;12.40;;;3.77;;
71166;SDS011;58864;45.928;20.078;2022-10-22T02:38:17;9.32;;;4.05;;
71166;SDS011;58864;45.928;20.078;2022-10-22T02:40:45;11.80;;;4.35;;
71166;SDS011;58864;45.928;20.078;2022-10-22T02:43:13;11.88;;;4.38;;
71166;SDS011;58864;45.928;20.078;2022-10-22T02:45:43;11.98;;;4.32;;
71166;SDS011;58864;45.928;20.078;2022-10-22T02:48:10;14.53;;;4.07;;
71166;SDS011;58864;45.928;20.078;2022-10-22T02:50:35;12.52;;;4.40;;
71166;SDS011;58864;45.928;20.078;2022-10-22T02:53:02;13.85;;;4.90;;
71166;SDS011;58864;45.928;20.078;2022-10-22T02:55:30;13.57;;;4.47;;
71166;SDS011;58864;45.928;20.078;2022-10-22T02:58:00;11.83;;;4.50;;
71166;SDS011;58864;45.928;20.078;2022-10-22T03:00:27;13.90;;;5.47;;
71166;SDS011;58864;45.928;20.078;2022-10-22T03:02:53;12.60;;;4.65;;
71166;SDS011;58864;45.928;20.078;2022-10-22T03:05:22;11.10;;;4.47;;
71166;SDS011;58864;45.928;20.078;2022-10-22T03:07:47;12.30;;;4.70;;
71166;SDS011;58864;45.928;20.078;2022-10-22T03:10:12;15.07;;;4.97;;
71166;SDS011;58864;45.928;20.078;2022-10-22T03:12:41;10.55;;;4.60;;
71166;SDS011;58864;45.928;20.078;2022-10-22T03:15:08;13.55;;;4.68;;
71166;SDS011;58864;45.928;20.078;2022-10-22T03:17:35;10.55;;;4.32;;
71166;SDS011;58864;45.928;20.078;2022-10-22T03:20:02;13.38;;;4.40;;
71166;SDS011;58864;45.928;20.078;2022-10-22T03:22:29;10.63;;;4.20;;
71166;SDS011;58864;45.928;20.078;2022-10-22T03:24:59;10.40;;;4.57;;
71166;SDS011;58864;45.928;20.078;2022-10-22T03:27:30;12.05;;;4.18;;
71166;SDS011;58864;45.928;20.078;2022-10-22T03:29:56;10.30;;;4.05;;
71166;SDS011;58864;45.928;20.078;2022-10-22T03:32:24;13.57;;;4.68;;
71166;SDS011;58864;45.928;20.078;2022-10-22T03:34:50;9.70;;;3.93;;
71166;SDS011;58864;45.928;20.078;2022-10-22T03:37:15;11.00;;;3.97;;
71166;SDS011;58864;45.928;20.078;2022-10-22T03:39:40;13.52;;;4.68;;
71166;SDS011;58864;45.928;20.078;2022-10-22T03:42:07;11.30;;;4.70;;
71166;SDS011;58864;45.928;20.078;2022-10-22T03:44:35;16.08;;;4.63;;
71166;SDS011;58864;45.928;20.078;2022-10-22T03:47:00;12.95;;;4.38;;
71166;SDS011;58864;45.928;20.078;2022-10-22T03:49:25;14.93;;;4.57;;
71166;SDS011;58864;45.928;20.078;2022-10-22T03:51:55;13.52;;;4.63;;
71166;SDS011;58864;45.928;20.078;2022-10-22T03:54:30;15.55;;;4.43;;
71166;SDS011;58864;45.928;20.078;2022-10-22T03:56:57;10.85;;;3.80;;
71166;SDS011;58864;45.928;20.078;2022-10-22T03:59:24;13.73;;;4.63;;
71166;SDS011;58864;45.928;20.078;2022-10-22T04:01:54;11.67;;;4.20;;
71166;SDS011;58864;45.928;20.078;2022-10-22T04:04:21;12.48;;;4.35;;
71166;SDS011;58864;45.928;20.078;2022-10-22T04:06:48;12.70;;;4.73;;
71166;SDS011;58864;45.928;20.078;2022-10-22T04:09:14;11.73;;;4.23;;
71166;SDS011;58864;45.928;20.078;2022-10-22T04:11:40;11.68;;;4.70;;
71166;SDS011;58864;45.928;20.078;2022-10-22T04:14:07;11.70;;;4.35;;
71166;SDS011;58864;45.928;20.078;2022-10-22T04:16:34;11.23;;;4.57;;
71166;SDS011;58864;45.928;20.078;2022-10-22T04:19:03;12.65;;;4.53;;
71166;SDS011;58864;45.928;20.078;2022-10-22T04:21:29;11.17;;;4.67;;
71166;SDS011;58864;45.928;20.078;2022-10-22T04:23:54;12.73;;;4.38;;
71166;SDS011;58864;45.928;20.078;2022-10-22T04:26:24;15.10;;;4.50;;
71166;SDS011;58864;45.928;20.078;2022-10-22T04:28:53;11.60;;;4.68;;
71166;SDS011;58864;45.928;20.078;2022-10-22T04:31:21;12.07;;;4.37;;
71166;SDS011;58864;45.928;20.078;2022-10-22T04:33:58;12.27;;;4.15;;
71166;SDS011;58864;45.928;20.078;2022-10-22T04:36:24;11.02;;;4.32;;
71166;SDS011;58864;45.928;20.078;2022-10-22T04:38:57;13.05;;;4.82;;
71166;SDS011;58864;45.928;20.078;2022-10-22T04:41:26;11.68;;;4.53;;
71166;SDS011;58864;45.928;20.078;2022-10-22T04:43:57;15.73;;;4.93;;
71166;SDS011;58864;45.928;20.078;2022-10-22T04:46:26;12.38;;;4.28;;
71166;SDS011;58864;45.928;20.078;2022-10-22T04:48:55;16.05;;;4.80;;
71166;SDS011;58864;45.928;20.078;2022-10-22T04:51:25;13.68;;;5.65;;
71166;SDS011;58864;45.928;20.078;2022-10-22T04:53:50;16.00;;;5.05;;
71166;SDS011;58864;45.928;20.078;2022-10-22T04:56:22;12.87;;;4.80;;
71166;SDS011;58864;45.928;20.078;2022-10-22T04:58:55;14.45;;;4.85;;
71166;SDS011;58864;45.928;20.078;2022-10-22T05:03:56;16.00;;;5.90;;
71166;SDS011;58864;45.928;20.078;2022-10-22T05:06:25;12.75;;;5.03;;
71166;SDS011;58864;45.928;20.078;2022-10-22T05:08:57;11.93;;;4.40;;
71166;SDS011;58864;45.928;20.078;2022-10-22T05:11:26;10.52;;;4.70;;
71166;SDS011;58864;45.928;20.078;2022-10-22T05:13:54;13.63;;;4.78;;
71166;SDS011;58864;45.928;20.078;2022-10-22T05:16:22;13.00;;;4.90;;
71166;SDS011;58864;45.928;20.078;2022-10-22T05:18:47;13.80;;;6.10;;
71166;SDS011;58864;45.928;20.078;2022-10-22T05:21:13;15.27;;;5.83;;
71166;SDS011;58864;45.928;20.078;2022-10-22T05:23:39;15.55;;;5.63;;
71166;SDS011;58864;45.928;20.078;2022-10-22T05:26:05;13.32;;;5.05;;
71166;SDS011;58864;45.928;20.078;2022-10-22T05:28:31;13.18;;;5.72;;
71166;SDS011;58864;45.928;20.078;2022-10-22T05:30:56;13.57;;;5.65;;
71166;SDS011;58864;45.928;20.078;2022-10-22T05:33:22;13.03;;;5.87;;
71166;SDS011;58864;45.928;20.078;2022-10-22T05:35:48;15.00;;;5.72;;
71166;SDS011;58864;45.928;20.078;2022-10-22T05:38:13;15.10;;;5.85;;
71166;SDS011;58864;45.928;20.078;2022-10-22T05:40:37;15.10;;;6.07;;
71166;SDS011;58864;45.928;20.078;2022-10-22T05:43:02;18.13;;;6.32;;
71166;SDS011;58864;45.928;20.078;2022-10-22T05:45:27;14.80;;;6.50;;
71166;SDS011;58864;45.928;20.078;2022-10-22T05:47:53;20.73;;;6.68;;
71166;SDS011;58864;45.928;20.078;2022-10-22T05:50:19;12.93;;;5.93;;
71166;SDS011;58864;45.928;20.078;2022-10-22T05:52:45;16.75;;;6.35;;
71166;SDS011;58864;45.928;20.078;2022-10-22T05:55:10;15.02;;;5.88;;
71166;SDS011;58864;45.928;20.078;2022-10-22T05:57:38;18.05;;;6.80;;
71166;SDS011;58864;45.928;20.078;2022-10-22T06:00:08;15.77;;;6.73;;
71166;SDS011;58864;45.928;20.078;2022-10-22T06:02:33;20.58;;;7.28;;
71166;SDS011;58864;45.928;20.078;2022-10-22T06:05:00;15.80;;;6.40;;
71166;SDS011;58864;45.928;20.078;2022-10-22T06:07:25;21.77;;;8.63;;
71166;SDS011;58864;45.928;20.078;2022-10-22T06:09:53;17.65;;;6.63;;
71166;SDS011;58864;45.928;20.078;2022-10-22T06:12:22;18.17;;;6.33;;
71166;SDS011;58864;45.928;20.078;2022-10-22T06:14:47;16.15;;;6.05;;
71166;SDS011;58864;45.928;20.078;2022-10-22T06:17:16;14.15;;;6.38;;
71166;SDS011;58864;45.928;20.078;2022-10-22T06:19:45;16.80;;;6.03;;
71166;SDS011;58864;45.928;20.078;2022-10-22T06:22:12;13.07;;;5.68;;
71166;SDS011;58864;45.928;20.078;2022-10-22T06:24:39;11.80;;;5.53;;
71166;SDS011;58864;45.928;20.078;2022-10-22T06:27:06;15.13;;;5.68;;
71166;SDS011;58864;45.928;20.078;2022-10-22T06:29:34;15.48;;;6.28;;
71166;SDS011;58864;45.928;20.078;2022-10-22T06:31:59;17.40;;;5.93;;
71166;SDS011;58864;45.928;20.078;2022-10-22T06:34:23;16.23;;;5.72;;
71166;SDS011;58864;45.928;20.078;2022-10-22T06:36:48;13.25;;;5.47;;
71166;SDS011;58864;45.928;20.078;2022-10-22T06:39:17;14.45;;;5.90;;
71166;SDS011;58864;45.928;20.078;2022-10-22T06:41:44;10.63;;;4.90;;
71166;SDS011;58864;45.928;20.078;2022-10-22T06:44:12;15.60;;;6.00;;
71166;SDS011;58864;45.928;20.078;2022-10-22T06:46:39;16.08;;;5.28;;
71166;SDS011;58864;45.928;20.078;2022-10-22T06:49:03;16.13;;;5.88;;
71166;SDS011;58864;45.928;20.078;2022-10-22T06:51:30;18.97;;;5.40;;
71166;SDS011;58864;45.928;20.078;2022-10-22T06:53:56;16.58;;;5.88;;
71166;SDS011;58864;45.928;20.078;2022-10-22T06:56:22;15.75;;;5.63;;
71166;SDS011;58864;45.928;20.078;2022-10-22T06:58:49;13.63;;;5.70;;
71166;SDS011;58864;45.928;20.078;2022-10-22T07:01:16;16.05;;;6.00;;
71166;SDS011;58864;45.928;20.078;2022-10-22T07:03:42;12.90;;;5.83;;
71166;SDS011;58864;45.928;20.078;2022-10-22T07:06:08;13.25;;;5.38;;
71166;SDS011;58864;45.928;20.078;2022-10-22T07:08:37;13.43;;;5.38;;
71166;SDS011;58864;45.928;20.078;2022-10-22T07:11:06;18.15;;;5.35;;
71166;SDS011;58864;45.928;20.078;2022-10-22T07:13:33;19.38;;;6.72;;
71166;SDS011;58864;45.928;20.078;2022-10-22T07:15:58;15.80;;;6.40;;
71166;SDS011;58864;45.928;20.078;2022-10-22T07:18:22;14.90;;;5.73;;
71166;SDS011;58864;45.928;20.078;2022-10-22T07:20:48;13.30;;;6.00;;
71166;SDS011;58864;45.928;20.078;2022-10-22T07:23:13;15.57;;;6.22;;
71166;SDS011;58864;45.928;20.078;2022-10-22T07:25:41;11.80;;;4.97;;
71166;SDS011;58864;45.928;20.078;2022-10-22T07:28:11;14.32;;;5.57;;
71166;SDS011;58864;45.928;20.078;2022-10-22T07:30:41;11.50;;;5.60;;
71166;SDS011;58864;45.928;20.078;2022-10-22T07:33:07;12.63;;;5.25;;
71166;SDS011;58864;45.928;20.078;2022-10-22T07:35:32;17.40;;;6.60;;
71166;SDS011;58864;45.928;20.078;2022-10-22T07:37:57;15.90;;;7.53;;
71166;SDS011;58864;45.928;20.078;2022-10-22T07:40:25;20.40;;;8.00;;
71166;SDS011;58864;45.928;20.078;2022-10-22T07:42:50;14.17;;;6.53;;
71166;SDS011;58864;45.928;20.078;2022-10-22T07:45:20;15.63;;;5.68;;
71166;SDS011;58864;45.928;20.078;2022-10-22T07:47:48;16.77;;;6.43;;
71166;SDS011;58864;45.928;20.078;2022-10-22T07:50:13;12.93;;;5.70;;
71166;SDS011;58864;45.928;20.078;2022-10-22T07:52:39;17.13;;;5.55;;
71166;SDS011;58864;45.928;20.078;2022-10-22T07:55:03;14.82;;;6.22;;
71166;SDS011;58864;45.928;20.078;2022-10-22T07:57:30;12.23;;;5.65;;
71166;SDS011;58864;45.928;20.078;2022-10-22T07:59:57;14.55;;;5.88;;
71166;SDS011;58864;45.928;20.078;2022-10-22T08:02:23;16.40;;;5.93;;
71166;SDS011;58864;45.928;20.078;2022-10-22T08:04:48;13.18;;;5.45;;
71166;SDS011;58864;45.928;20.078;2022-10-22T08:07:15;13.13;;;5.78;;
71166;SDS011;58864;45.928;20.078;2022-10-22T08:09:43;14.73;;;5.90;;
71166;SDS011;58864;45.928;20.078;2022-10-22T08:12:13;16.95;;;5.93;;
71166;SDS011;58864;45.928;20.078;2022-10-22T08:14:42;16.98;;;6.07;;
71166;SDS011;58864;45.928;20.078;2022-10-22T08:17:06;18.63;;;6.38;;
71166;SDS011;58864;45.928;20.078;2022-10-22T08:19:32;12.87;;;5.77;;
71166;SDS011;58864;45.928;20.078;2022-10-22T08:22:01;18.70;;;7.07;;
71166;SDS011;58864;45.928;20.078;2022-10-22T08:24:28;25.77;;;7.82;;
71166;SDS011;58864;45.928;20.078;2022-10-22T08:26:54;15.68;;;6.13;;
71166;SDS011;58864;45.928;20.078;2022-10-22T08:29:21;18.63;;;6.63;;
71166;SDS011;58864;45.928;20.078;2022-10-22T08:31:49;110.32;;;27.17;;
71166;SDS011;58864;45.928;20.078;2022-10-22T08:34:17;49.85;;;15.80;;
71166;SDS011;58864;45.928;20.078;2022-10-22T08:36:42;16.27;;;5.95;;
71166;SDS011;58864;45.928;20.078;2022-10-22T08:39:12;11.38;;;5.25;;
71166;SDS011;58864;45.928;20.078;2022-10-22T08:41:49;12.40;;;5.43;;
71166;SDS011;58864;45.928;20.078;2022-10-22T08:49:58;14.75;;;6.50;;
71166;SDS011;58864;45.928;20.078;2022-10-22T08:52:28;14.98;;;6.05;;
71166;SDS011;58864;45.928;20.078;2022-10-22T08:54:58;16.20;;;6.23;;
71166;SDS011;58864;45.928;20.078;2022-10-22T09:08:22;13.60;;;5.70;;
71166;SDS011;58864;45.928;20.078;2022-10-22T09:10:49;16.27;;;5.85;;
71166;SDS011;58864;45.928;20.078;2022-10-22T09:13:21;16.10;;;6.03;;
71166;SDS011;58864;45.928;20.078;2022-10-22T09:15:59;20.88;;;6.30;;
71166;SDS011;58864;45.928;20.078;2022-10-22T09:18:35;24.33;;;7.18;;
71166;SDS011;58864;45.928;20.078;2022-10-22T09:21:05;12.33;;;5.43;;
71166;SDS011;58864;45.928;20.078;2022-10-22T09:23:53;14.35;;;5.53;;
71166;SDS011;58864;45.928;20.078;2022-10-22T09:26:46;13.35;;;4.75;;
71166;SDS011;58864;45.928;20.078;2022-10-22T09:29:18;11.80;;;5.00;;
71166;SDS011;58864;45.928;20.078;2022-10-22T09:31:45;18.17;;;4.88;;
71166;SDS011;58864;45.928;20.078;2022-10-22T09:34:12;11.87;;;4.80;;
71166;SDS011;58864;45.928;20.078;2022-10-22T09:36:38;12.43;;;4.80;;
71166;SDS011;58864;45.928;20.078;2022-10-22T09:39:02;16.10;;;4.70;;
71166;SDS011;58864;45.928;20.078;2022-10-22T09:41:27;10.70;;;4.60;;
71166;SDS011;58864;45.928;20.078;2022-10-22T09:43:53;11.55;;;4.53;;
71166;SDS011;58864;45.928;20.078;2022-10-22T09:46:18;14.83;;;4.93;;
71166;SDS011;58864;45.928;20.078;2022-10-22T09:49:01;11.13;;;4.70;;
71166;SDS011;58864;45.928;20.078;2022-10-22T09:54:16;13.27;;;4.53;;
71166;SDS011;58864;45.928;20.078;2022-10-22T09:57:15;9.70;;;3.97;;
71166;SDS011;58864;45.928;20.078;2022-10-22T09:59:41;15.02;;;4.80;;
71166;SDS011;58864;45.928;20.078;2022-10-22T10:02:22;11.00;;;4.40;;
71166;SDS011;58864;45.928;20.078;2022-10-22T10:04:50;11.63;;;4.20;;
71166;SDS011;58864;45.928;20.078;2022-10-22T10:07:17;10.23;;;4.50;;
71166;SDS011;58864;45.928;20.078;2022-10-22T10:09:43;11.20;;;4.07;;
71166;SDS011;58864;45.928;20.078;2022-10-22T10:22:53;13.13;;;4.77;;
71166;SDS011;58864;45.928;20.078;2022-10-22T10:25:27;11.75;;;4.85;;
71166;SDS011;58864;45.928;20.078;2022-10-22T10:28:01;12.48;;;4.68;;
71166;SDS011;58864;45.928;20.078;2022-10-22T10:30:35;15.07;;;4.80;;
71166;SDS011;58864;45.928;20.078;2022-10-22T10:33:22;12.55;;;5.57;;
71166;SDS011;58864;45.928;20.078;2022-10-22T10:36:17;19.33;;;5.70;;
71166;SDS011;58864;45.928;20.078;2022-10-22T10:47:22;17.73;;;5.07;;
71166;SDS011;58864;45.928;20.078;2022-10-22T10:52:49;13.77;;;4.82;;
71166;SDS011;58864;45.928;20.078;2022-10-22T10:55:38;11.50;;;5.00;;
71166;SDS011;58864;45.928;20.078;2022-10-22T10:58:15;13.77;;;4.72;;
71166;SDS011;58864;45.928;20.078;2022-10-22T11:01:00;12.05;;;4.80;;
71166;SDS011;58864;45.928;20.078;2022-10-22T11:06:15;13.07;;;5.00;;
71166;SDS011;58864;45.928;20.078;2022-10-22T11:08:57;14.70;;;5.30;;
71166;SDS011;58864;45.928;20.078;2022-10-22T11:11:57;17.65;;;5.50;;
71166;SDS011;58864;45.928;20.078;2022-10-22T11:17:04;15.40;;;5.90;;
71166;SDS011;58864;45.928;20.078;2022-10-22T11:19:41;26.23;;;13.40;;
71166;SDS011;58864;45.928;20.078;2022-10-22T11:30:13;14.73;;;6.27;;
71166;SDS011;58864;45.928;20.078;2022-10-22T11:32:41;11.85;;;5.10;;
71166;SDS011;58864;45.928;20.078;2022-10-22T11:35:11;16.95;;;5.43;;
71166;SDS011;58864;45.928;20.078;2022-10-22T11:37:39;15.93;;;6.10;;
71166;SDS011;58864;45.928;20.078;2022-10-22T11:42:52;31.80;;;13.07;;
71166;SDS011;58864;45.928;20.078;2022-10-22T11:47:52;12.80;;;6.22;;
71166;SDS011;58864;45.928;20.078;2022-10-22T11:50:25;14.82;;;5.97;;
71166;SDS011;58864;45.928;20.078;2022-10-22T12:01:15;9.68;;;3.63;;
71166;SDS011;58864;45.928;20.078;2022-10-22T12:08:45;65.47;;;31.77;;
71166;SDS011;58864;45.928;20.078;2022-10-22T12:11:48;52.75;;;21.17;;
71166;SDS011;58864;45.928;20.078;2022-10-22T12:16:52;157.90;;;69.13;;
71166;SDS011;58864;45.928;20.078;2022-10-22T12:21:55;36.40;;;17.93;;
71166;SDS011;58864;45.928;20.078;2022-10-22T12:24:22;30.00;;;11.73;;
71166;SDS011;58864;45.928;20.078;2022-10-22T12:26:48;87.00;;;34.60;;
71166;SDS011;58864;45.928;20.078;2022-10-22T12:29:17;102.55;;;40.95;;
71166;SDS011;58864;45.928;20.078;2022-10-22T12:31:44;49.78;;;23.95;;
71166;SDS011;58864;45.928;20.078;2022-10-22T12:34:14;58.87;;;29.10;;
71166;SDS011;58864;45.928;20.078;2022-10-22T12:36:41;61.63;;;25.70;;
71166;SDS011;58864;45.928;20.078;2022-10-22T12:39:13;45.13;;;21.60;;
71166;SDS011;58864;45.928;20.078;2022-10-22T12:41:58;97.95;;;44.40;;
71166;SDS011;58864;45.928;20.078;2022-10-22T12:44:23;83.40;;;41.50;;
71166;SDS011;58864;45.928;20.078;2022-10-22T12:46:48;77.47;;;39.03;;
71166;SDS011;58864;45.928;20.078;2022-10-22T12:49:17;94.78;;;48.30;;
71166;SDS011;58864;45.928;20.078;2022-10-22T12:51:46;35.43;;;15.73;;
71166;SDS011;58864;45.928;20.078;2022-10-22T12:54:15;53.58;;;22.08;;
71166;SDS011;58864;45.928;20.078;2022-10-22T12:56:49;18.60;;;7.25;;
71166;SDS011;58864;45.928;20.078;2022-10-22T13:01:40;45.33;;;20.13;;
71166;SDS011;58864;45.928;20.078;2022-10-22T13:09:41;79.40;;;36.85;;
71166;SDS011;58864;45.928;20.078;2022-10-22T13:12:09;78.97;;;32.92;;
71166;SDS011;58864;45.928;20.078;2022-10-22T13:14:39;49.25;;;19.35;;
71166;SDS011;58864;45.928;20.078;2022-10-22T13:17:17;43.37;;;17.80;;
71166;SDS011;58864;45.928;20.078;2022-10-22T13:20:02;42.58;;;18.23;;
71166;SDS011;58864;45.928;20.078;2022-10-22T13:25:03;95.60;;;40.72;;
71166;SDS011;58864;45.928;20.078;2022-10-22T13:27:41;36.77;;;15.90;;
71166;SDS011;58864;45.928;20.078;2022-10-22T13:30:20;29.23;;;13.25;;
71166;SDS011;58864;45.928;20.078;2022-10-22T13:35:54;72.95;;;31.23;;
71166;SDS011;58864;45.928;20.078;2022-10-22T13:38:23;58.10;;;24.67;;
71166;SDS011;58864;45.928;20.078;2022-10-22T13:40:49;40.27;;;18.33;;
71166;SDS011;58864;45.928;20.078;2022-10-22T13:43:15;48.63;;;21.02;;
71166;SDS011;58864;45.928;20.078;2022-10-22T13:45:42;75.88;;;36.35;;
71166;SDS011;58864;45.928;20.078;2022-10-22T13:48:08;90.47;;;45.97;;
71166;SDS011;58864;45.928;20.078;2022-10-22T13:50:36;35.63;;;17.15;;
71166;SDS011;58864;45.928;20.078;2022-10-22T13:53:01;25.27;;;12.07;;
71166;SDS011;58864;45.928;20.078;2022-10-22T13:55:27;27.10;;;12.63;;
71166;SDS011;58864;45.928;20.078;2022-10-22T13:58:16;35.40;;;15.30;;
71166;SDS011;58864;45.928;20.078;2022-10-22T14:00:47;47.78;;;23.00;;
71166;SDS011;58864;45.928;20.078;2022-10-22T14:03:15;34.57;;;14.67;;
71166;SDS011;58864;45.928;20.078;2022-10-22T14:05:44;32.60;;;13.90;;
71166;SDS011;58864;45.928;20.078;2022-10-22T14:08:11;26.63;;;9.95;;
71166;SDS011;58864;45.928;20.078;2022-10-22T14:10:37;25.85;;;9.02;;
71166;SDS011;58864;45.928;20.078;2022-10-22T14:13:04;33.60;;;11.63;;
71166;SDS011;58864;45.928;20.078;2022-10-22T14:15:30;32.38;;;11.35;;
71166;SDS011;58864;45.928;20.078;2022-10-22T14:17:55;33.60;;;13.45;;
71166;SDS011;58864;45.928;20.078;2022-10-22T14:20:21;36.30;;;16.97;;
71166;SDS011;58864;45.928;20.078;2022-10-22T14:22:48;29.92;;;12.85;;
71166;SDS011;58864;45.928;20.078;2022-10-22T14:25:18;35.65;;;13.65;;
71166;SDS011;58864;45.928;20.078;2022-10-22T14:27:44;28.60;;;12.43;;
71166;SDS011;58864;45.928;20.078;2022-10-22T14:30:17;26.50;;;10.73;;
71166;SDS011;58864;45.928;20.078;2022-10-22T14:32:43;41.27;;;13.27;;
71166;SDS011;58864;45.928;20.078;2022-10-22T14:35:12;33.47;;;13.32;;
71166;SDS011;58864;45.928;20.078;2022-10-22T14:37:39;36.40;;;13.05;;
71166;SDS011;58864;45.928;20.078;2022-10-22T14:40:04;37.60;;;13.25;;
71166;SDS011;58864;45.928;20.078;2022-10-22T14:42:29;38.63;;;12.93;;
71166;SDS011;58864;45.928;20.078;2022-10-22T14:44:54;48.47;;;13.82;;
71166;SDS011;58864;45.928;20.078;2022-10-22T14:47:18;38.10;;;13.40;;
71166;SDS011;58864;45.928;20.078;2022-10-22T14:49:44;49.08;;;14.23;;
71166;SDS011;58864;45.928;20.078;2022-10-22T14:52:09;43.92;;;13.90;;
71166;SDS011;58864;45.928;20.078;2022-10-22T14:54:34;42.13;;;14.23;;
71166;SDS011;58864;45.928;20.078;2022-10-22T14:56:59;34.80;;;14.00;;
71166;SDS011;58864;45.928;20.078;2022-10-22T14:59:25;41.40;;;14.70;;
71166;SDS011;58864;45.928;20.078;2022-10-22T15:01:51;30.83;;;11.83;;
71166;SDS011;58864;45.928;20.078;2022-10-22T15:04:19;39.38;;;12.63;;
71166;SDS011;58864;45.928;20.078;2022-10-22T15:06:44;39.22;;;14.60;;
71166;SDS011;58864;45.928;20.078;2022-10-22T15:09:08;36.47;;;12.90;;
71166;SDS011;58864;45.928;20.078;2022-10-22T15:11:34;48.75;;;13.77;;
71166;SDS011;58864;45.928;20.078;2022-10-22T15:13:58;49.03;;;17.47;;
71166;SDS011;58864;45.928;20.078;2022-10-22T15:16:23;46.30;;;17.25;;
71166;SDS011;58864;45.928;20.078;2022-10-22T15:18:47;55.20;;;21.33;;
71166;SDS011;58864;45.928;20.078;2022-10-22T15:21:13;67.73;;;25.20;;
71166;SDS011;58864;45.928;20.078;2022-10-22T15:23:39;74.95;;;27.52;;
71166;SDS011;58864;45.928;20.078;2022-10-22T15:26:05;37.58;;;14.95;;
71166;SDS011;58864;45.928;20.078;2022-10-22T15:28:31;46.53;;;19.02;;
71166;SDS011;58864;45.928;20.078;2022-10-22T15:30:56;42.57;;;16.70;;
71166;SDS011;58864;45.928;20.078;2022-10-22T15:33:22;32.90;;;13.88;;
71166;SDS011;58864;45.928;20.078;2022-10-22T15:35:47;33.03;;;13.73;;
71166;SDS011;58864;45.928;20.078;2022-10-22T15:38:12;29.90;;;12.38;;
71166;SDS011;58864;45.928;20.078;2022-10-22T15:40:36;35.83;;;14.00;;
71166;SDS011;58864;45.928;20.078;2022-10-22T15:43:01;50.72;;;19.63;;
71166;SDS011;58864;45.928;20.078;2022-10-22T15:45:26;62.13;;;25.25;;
71166;SDS011;58864;45.928;20.078;2022-10-22T15:47:50;55.77;;;22.97;;
71166;SDS011;58864;45.928;20.078;2022-10-22T15:50:15;45.70;;;18.93;;
71166;SDS011;58864;45.928;20.078;2022-10-22T15:52:41;39.33;;;16.38;;
71166;SDS011;58864;45.928;20.078;2022-10-22T15:55:06;45.65;;;18.58;;
71166;SDS011;58864;45.928;20.078;2022-10-22T15:57:34;42.42;;;15.68;;
71166;SDS011;58864;45.928;20.078;2022-10-22T15:59:58;35.25;;;12.18;;
71166;SDS011;58864;45.928;20.078;2022-10-22T16:02:23;35.70;;;14.33;;
71166;SDS011;58864;45.928;20.078;2022-10-22T16:04:47;37.40;;;15.53;;
71166;SDS011;58864;45.928;20.078;2022-10-22T16:07:12;29.95;;;10.15;;
71166;SDS011;58864;45.928;20.078;2022-10-22T16:09:36;23.13;;;9.93;;
71166;SDS011;58864;45.928;20.078;2022-10-22T16:12:01;25.98;;;10.32;;
71166;SDS011;58864;45.928;20.078;2022-10-22T16:14:26;28.27;;;9.33;;
71166;SDS011;58864;45.928;20.078;2022-10-22T16:16:53;36.65;;;12.95;;
71166;SDS011;58864;45.928;20.078;2022-10-22T16:19:19;40.85;;;13.05;;
71166;SDS011;58864;45.928;20.078;2022-10-22T16:21:47;31.20;;;12.50;;
71166;SDS011;58864;45.928;20.078;2022-10-22T16:24:14;34.70;;;12.30;;
71166;SDS011;58864;45.928;20.078;2022-10-22T16:26:40;33.03;;;12.80;;
71166;SDS011;58864;45.928;20.078;2022-10-22T16:29:05;36.30;;;12.87;;
71166;SDS011;58864;45.928;20.078;2022-10-22T16:31:31;36.63;;;13.07;;